createdAt,value
2023-01-23T00:00:20.327Z,-59
2023-01-23T00:02:46.930Z,-60
2023-01-23T00:05:13.831Z,-60
2023-01-23T00:07:40.343Z,-60
2023-01-23T00:10:07.594Z,-57
2023-01-23T00:12:34.060Z,-59
2023-01-23T00:15:00.526Z,-60
2023-01-23T00:17:27.527Z,-58
2023-01-23T00:19:54.995Z,-60
2023-01-23T00:22:21.758Z,-60
2023-01-23T00:24:48.375Z,-59
2023-01-23T00:27:15.289Z,-58
2023-01-23T00:29:41.837Z,-61
2023-01-23T00:32:08.347Z,-61
2023-01-23T00:34:34.873Z,-61
2023-01-23T00:37:01.444Z,-60
2023-01-23T00:39:27.907Z,-61
2023-01-23T00:41:54.380Z,-61
2023-01-23T00:44:20.901Z,-60
2023-01-23T00:46:48.646Z,-58
2023-01-23T00:49:17.783Z,-58
2023-01-23T00:51:45.390Z,-59
2023-01-23T00:54:12.400Z,-61
2023-01-23T00:56:38.912Z,-60
2023-01-23T00:59:05.439Z,-60
2023-01-23T01:01:32.788Z,-60
2023-01-23T01:03:59.991Z,-58
2023-01-23T01:06:26.726Z,-57
2023-01-23T01:08:53.201Z,-58
2023-01-23T01:11:19.704Z,-60
2023-01-23T01:13:46.307Z,-60
2023-01-23T01:16:13.221Z,-61
2023-01-23T01:18:39.880Z,-59
2023-01-23T01:21:08.784Z,-59
2023-01-23T01:23:35.723Z,-60
2023-01-23T01:26:02.637Z,-60
2023-01-23T01:28:31.098Z,-60
2023-01-23T01:30:58.145Z,-61
2023-01-23T01:33:25.746Z,-61
2023-01-23T01:35:52.309Z,-61
2023-01-23T01:38:18.764Z,-61
2023-01-23T01:40:45.278Z,-61
2023-01-23T01:43:22.427Z,-61
2023-01-23T01:46:13.938Z,-62
2023-01-23T01:48:43.121Z,-61
2023-01-23T01:51:30.028Z,-62
2023-01-23T01:53:59.482Z,-62
2023-01-23T01:56:28.127Z,-61
2023-01-23T01:58:55.362Z,-60
2023-01-23T02:01:21.876Z,-61
2023-01-23T02:03:50.852Z,-60
2023-01-23T02:06:17.672Z,-61
2023-01-23T02:09:05.915Z,-61
2023-01-23T02:11:33.455Z,-61
2023-01-23T02:14:00.021Z,-61
2023-01-23T02:16:30.085Z,-60
2023-01-23T02:19:09.096Z,-61
2023-01-23T02:21:37.078Z,-61
2023-01-23T02:24:31.918Z,-60
2023-01-23T02:26:58.390Z,-61
2023-01-23T02:29:25.838Z,-59
2023-01-23T02:31:53.370Z,-61
2023-01-23T02:34:22.253Z,-60
2023-01-23T02:36:49.603Z,-61
2023-01-23T02:39:18.315Z,-62
2023-01-23T02:41:52.804Z,-61
2023-01-23T02:44:26.538Z,-60
2023-01-23T02:46:59.881Z,-61
2023-01-23T02:49:27.108Z,-61
2023-01-23T02:51:54.988Z,-61
2023-01-23T02:54:22.786Z,-61
2023-01-23T02:56:49.767Z,-61
2023-01-23T02:59:34.918Z,-61
2023-01-23T03:02:01.536Z,-60
2023-01-23T03:04:28.007Z,-61
2023-01-23T03:06:54.533Z,-60
2023-01-23T03:09:22.692Z,-60
2023-01-23T03:11:49.802Z,-61
2023-01-23T03:14:19.272Z,-61
2023-01-23T03:16:51.519Z,-60
2023-01-23T03:19:20.192Z,-61
2023-01-23T03:21:47.062Z,-60
2023-01-23T03:24:14.745Z,-60
2023-01-23T03:26:43.232Z,-60
2023-01-23T03:29:38.959Z,-61
2023-01-23T03:32:05.678Z,-59
2023-01-23T03:34:32.695Z,-59
2023-01-23T03:37:00.302Z,-61
2023-01-23T03:39:45.991Z,-62
2023-01-23T03:42:12.479Z,-59
2023-01-23T03:44:39.028Z,-60
2023-01-23T03:47:05.599Z,-60
2023-01-23T03:49:32.565Z,-60
2023-01-23T03:51:59.362Z,-60
2023-01-23T03:54:26.309Z,-61
2023-01-23T03:56:55.405Z,-61
2023-01-23T03:59:21.910Z,-62
2023-01-23T04:01:49.002Z,-62
2023-01-23T04:04:15.526Z,-61
2023-01-23T04:06:42.006Z,-61
2023-01-23T04:09:08.697Z,-58
2023-01-23T04:11:35.172Z,-56
2023-01-23T04:14:01.621Z,-58
2023-01-23T04:16:28.885Z,-57
2023-01-23T04:18:55.841Z,-59
2023-01-23T04:21:23.158Z,-58
2023-01-23T04:23:49.817Z,-59
2023-01-23T04:26:16.373Z,-59
2023-01-23T04:28:42.874Z,-59
2023-01-23T04:31:09.723Z,-59
2023-01-23T04:33:36.415Z,-59
2023-01-23T04:36:05.727Z,-60
2023-01-23T04:38:33.770Z,-60
2023-01-23T04:41:00.341Z,-59
2023-01-23T04:43:26.930Z,-62
2023-01-23T04:45:54.942Z,-60
2023-01-23T04:48:21.510Z,-59
2023-01-23T04:50:48.718Z,-59
2023-01-23T04:53:15.299Z,-61
2023-01-23T04:55:41.855Z,-59
2023-01-23T04:58:11.322Z,-58
2023-01-23T05:00:38.239Z,-59
2023-01-23T05:03:05.052Z,-58
2023-01-23T05:05:31.970Z,-58
2023-01-23T05:07:58.452Z,-58
2023-01-23T05:10:25.055Z,-59
2023-01-23T05:12:51.511Z,-57
2023-01-23T05:15:18.074Z,-58
2023-01-23T05:17:44.587Z,-59
2023-01-23T05:20:11.766Z,-60
2023-01-23T05:22:39.083Z,-58
2023-01-23T05:25:06.203Z,-59
2023-01-23T05:27:32.681Z,-59
2023-01-23T05:29:59.196Z,-60
2023-01-23T05:32:25.665Z,-59
2023-01-23T05:34:52.168Z,-59
2023-01-23T05:37:20.348Z,-59
2023-01-23T05:39:47.092Z,-59
2023-01-23T05:42:13.555Z,-60
2023-01-23T05:44:40.032Z,-60
2023-01-23T05:47:06.536Z,-60
2023-01-23T05:49:33.108Z,-60
2023-01-23T05:51:59.594Z,-58
2023-01-23T05:54:26.125Z,-59
2023-01-23T05:56:52.690Z,-61
2023-01-23T05:59:19.151Z,-59
2023-01-23T06:01:45.600Z,-58
2023-01-23T06:04:13.669Z,-57
2023-01-23T06:06:40.160Z,-63
2023-01-23T06:09:06.723Z,-58
2023-01-23T06:11:33.304Z,-57
2023-01-23T06:13:59.781Z,-71
2023-01-23T06:16:26.298Z,-71
2023-01-23T06:18:52.930Z,-71
2023-01-23T06:21:19.616Z,-71
2023-01-23T06:23:46.191Z,-71
2023-01-23T06:26:13.711Z,-72
2023-01-23T06:28:40.402Z,-72
2023-01-23T06:31:09.279Z,-72
2023-01-23T06:33:38.895Z,-72
2023-01-23T06:36:06.679Z,-72
2023-01-23T06:38:33.606Z,-72
2023-01-23T06:41:00.630Z,-73
2023-01-23T06:43:27.354Z,-74
2023-01-23T06:45:53.845Z,-74
2023-01-23T06:48:20.928Z,-74
2023-01-23T06:50:47.541Z,-72
2023-01-23T06:53:16.228Z,-72
2023-01-23T06:55:42.911Z,-73
2023-01-23T06:58:09.400Z,-73
2023-01-23T07:00:35.898Z,-73
2023-01-23T07:03:05.575Z,-72
2023-01-23T07:05:36.773Z,-72
2023-01-23T07:08:04.922Z,-73
2023-01-23T07:10:32.363Z,-73
2023-01-23T07:12:58.778Z,-72
2023-01-23T07:15:25.307Z,-72
2023-01-23T07:17:52.082Z,-73
2023-01-23T07:20:18.997Z,-73
2023-01-23T07:22:45.675Z,-73
2023-01-23T07:25:12.182Z,-73
2023-01-23T07:27:38.716Z,-72
2023-01-23T07:30:05.964Z,-74
2023-01-23T07:32:32.470Z,-73
2023-01-23T07:34:58.968Z,-74
2023-01-23T07:37:25.452Z,-74
2023-01-23T07:39:52.451Z,-73
2023-01-23T07:42:19.163Z,-73
2023-01-23T07:44:45.644Z,-73
2023-01-23T07:47:12.137Z,-73
2023-01-23T07:49:38.639Z,-73
2023-01-23T07:52:05.479Z,-74
2023-01-23T07:54:32.139Z,-75
2023-01-23T07:56:58.636Z,-73
2023-01-23T07:59:25.439Z,-73
2023-01-23T08:01:52.689Z,-73
2023-01-23T08:04:22.004Z,-75
2023-01-23T08:06:48.457Z,-72
2023-01-23T08:09:15.030Z,-72
2023-01-23T08:11:41.551Z,-73
2023-01-23T08:14:08.071Z,-73
2023-01-23T08:16:34.585Z,-72
2023-01-23T08:19:01.066Z,-73
2023-01-23T08:21:27.522Z,-73
2023-01-23T08:23:54.245Z,-73
2023-01-23T08:26:20.720Z,-72
2023-01-23T08:28:47.329Z,-73
2023-01-23T08:31:14.184Z,-73
2023-01-23T08:33:40.867Z,-73
2023-01-23T08:36:11.031Z,-71
2023-01-23T08:38:37.978Z,-72
2023-01-23T08:41:05.418Z,-70
2023-01-23T08:43:32.147Z,-71
2023-01-23T08:45:59.878Z,-71
2023-01-23T08:48:27.323Z,-71
2023-01-23T08:51:04.638Z,-72
2023-01-23T08:53:32.303Z,-71
2023-01-23T08:56:07.188Z,-71
2023-01-23T08:58:34.708Z,-72
2023-01-23T09:01:01.342Z,-71
2023-01-23T09:03:28.593Z,-70
2023-01-23T09:05:55.457Z,-71
2023-01-23T09:08:21.905Z,-70
2023-01-23T09:10:48.372Z,-71
2023-01-23T09:13:14.877Z,-73
2023-01-23T09:15:44.204Z,-74
2023-01-23T09:18:10.652Z,-72
2023-01-23T09:20:38.431Z,-71
2023-01-23T09:23:04.946Z,-70
2023-01-23T09:25:31.762Z,-70
2023-01-23T09:27:58.307Z,-71
2023-01-23T09:30:25.056Z,-70
2023-01-23T09:32:51.859Z,-70
2023-01-23T09:35:18.391Z,-71
2023-01-23T09:38:00.085Z,-70
2023-01-23T09:40:33.136Z,-70
2023-01-23T09:43:09.063Z,-70
2023-01-23T09:45:37.202Z,-70
2023-01-23T09:48:15.038Z,-70
2023-01-23T09:50:54.131Z,-69
2023-01-23T09:53:25.241Z,-70
2023-01-23T09:56:00.835Z,-70
2023-01-23T09:58:37.292Z,-72
2023-01-23T10:01:04.337Z,-69
2023-01-23T10:03:32.174Z,-71
2023-01-23T10:06:19.328Z,-70
2023-01-23T10:08:45.741Z,-70
2023-01-23T10:11:42.827Z,-70
2023-01-23T10:14:27.819Z,-70
2023-01-23T10:17:06.350Z,-71
2023-01-23T10:19:44.260Z,-70
2023-01-23T10:22:23.149Z,-70
2023-01-23T10:24:52.728Z,-70
2023-01-23T10:27:38.379Z,-70
2023-01-23T10:30:26.108Z,-70
2023-01-23T10:33:02.798Z,-70
2023-01-23T10:35:51.662Z,-70
2023-01-23T10:38:24.760Z,-70
2023-01-23T10:41:09.783Z,-70
2023-01-23T10:43:36.353Z,-71
2023-01-23T10:46:13.083Z,-71
2023-01-23T10:48:47.848Z,-71
2023-01-23T10:51:30.272Z,-70
2023-01-23T10:54:33.116Z,-70
2023-01-23T10:57:03.120Z,-70
2023-01-23T10:59:43.443Z,-70
2023-01-23T11:02:12.877Z,-72
2023-01-23T11:04:41.882Z,-71
2023-01-23T11:07:16.407Z,-71
2023-01-23T11:09:51.164Z,-70
2023-01-23T11:12:20.862Z,-71
2023-01-23T11:14:47.804Z,-70
2023-01-23T11:17:32.535Z,-70
2023-01-23T11:19:59.893Z,-70
2023-01-23T11:22:37.592Z,-71
2023-01-23T11:25:29.245Z,-70
2023-01-23T11:28:01.214Z,-70
2023-01-23T11:30:38.378Z,-70
2023-01-23T11:33:07.913Z,-71
2023-01-23T11:35:34.326Z,-71
2023-01-23T11:38:03.608Z,-70
2023-01-23T11:40:30.275Z,-70
2023-01-23T11:42:56.726Z,-69
2023-01-23T11:45:38.060Z,-69
2023-01-23T11:48:26.451Z,-71
2023-01-23T11:51:20.481Z,-71
2023-01-23T11:54:17.205Z,-71
2023-01-23T11:56:53.579Z,-70
2023-01-23T11:59:29.124Z,-72
2023-01-23T12:02:31.775Z,-71
2023-01-23T12:05:01.182Z,-70
2023-01-23T12:07:27.725Z,-71
2023-01-23T12:10:24.747Z,-72
2023-01-23T12:13:29.983Z,-74
2023-01-23T12:16:21.320Z,-74
2023-01-23T12:19:06.931Z,-75
2023-01-23T12:21:51.751Z,-76
2023-01-23T12:24:43.021Z,-71
2023-01-23T12:27:41.091Z,-73
2023-01-23T12:30:20.119Z,-72
2023-01-23T12:33:19.314Z,-72
2023-01-23T12:36:21.493Z,-72
2023-01-23T12:39:29.905Z,-72
2023-01-23T12:42:03.997Z,-73
2023-01-23T12:44:35.734Z,-74
2023-01-23T12:47:09.637Z,-73
2023-01-23T12:49:54.605Z,-73
2023-01-23T12:52:23.751Z,-73
2023-01-23T12:54:59.757Z,-72
2023-01-23T12:57:59.650Z,-74
2023-01-23T13:00:38.979Z,-72
2023-01-23T13:03:45.667Z,-73
2023-01-23T13:06:50.467Z,-73
2023-01-23T13:09:37.042Z,-73
2023-01-23T13:12:22.638Z,-73
2023-01-23T13:15:14.992Z,-73
2023-01-23T13:17:48.503Z,-73
2023-01-23T13:20:53.719Z,-72
2023-01-23T13:23:31.594Z,-72
2023-01-23T13:26:16.675Z,-72
2023-01-23T13:28:53.976Z,-72
2023-01-23T13:31:33.720Z,-73
2023-01-23T13:34:15.060Z,-72
2023-01-23T13:36:43.379Z,-73
2023-01-23T13:39:23.823Z,-72
2023-01-23T13:42:11.789Z,-73
2023-01-23T13:45:16.807Z,-72
2023-01-23T14:22:38.399Z,-66
2023-01-23T14:25:16.291Z,-65
2023-01-23T14:27:52.802Z,-65
2023-01-23T14:30:24.944Z,-66
2023-01-23T14:32:51.602Z,-64
2023-01-23T14:35:29.532Z,-66
2023-01-23T14:37:59.267Z,-65
2023-01-23T14:40:30.568Z,-65
2023-01-23T14:43:09.837Z,-65
2023-01-23T14:45:37.753Z,-65
2023-01-23T14:48:14.656Z,-66
2023-01-23T14:50:42.139Z,-65
2023-01-23T14:53:16.486Z,-67
2023-01-23T14:55:47.510Z,-65
2023-01-23T14:58:21.347Z,-63
2023-01-23T15:00:49.315Z,-66
2023-01-23T15:03:36.517Z,-65
2023-01-23T15:06:08.478Z,-67
2023-01-23T15:08:36.045Z,-66
2023-01-23T15:11:03.253Z,-66
2023-01-23T15:13:34.508Z,-66
2023-01-23T15:16:07.645Z,-65
2023-01-23T15:18:35.817Z,-65
2023-01-23T15:21:04.221Z,-64
2023-01-23T15:23:31.963Z,-66
2023-01-23T15:26:20.828Z,-68
2023-01-23T15:28:56.789Z,-64
2023-01-23T15:31:31.565Z,-66
2023-01-23T15:34:16.177Z,-66
2023-01-23T15:36:50.448Z,-66
2023-01-23T15:39:39.931Z,-67
2023-01-23T15:42:12.625Z,-66
2023-01-23T15:44:39.907Z,-67
2023-01-23T15:47:07.051Z,-66
2023-01-23T15:49:35.896Z,-67
2023-01-23T15:52:17.655Z,-67
2023-01-23T15:54:44.568Z,-66
2023-01-23T15:57:13.432Z,-66
2023-01-23T15:59:40.419Z,-67
2023-01-23T16:02:29.112Z,-64
2023-01-23T16:04:57.017Z,-65
2023-01-23T16:07:26.944Z,-67
2023-01-23T16:09:55.094Z,-66
2023-01-23T16:12:27.544Z,-66
2023-01-23T16:14:54.368Z,-67
2023-01-23T16:17:20.921Z,-66
2023-01-23T16:19:47.487Z,-67
2023-01-23T16:22:22.529Z,-66
2023-01-23T16:24:49.917Z,-67
2023-01-23T16:27:18.820Z,-67
2023-01-23T16:29:46.605Z,-66
2023-01-23T16:32:13.333Z,-67
2023-01-23T16:34:39.836Z,-67
2023-01-23T16:37:14.402Z,-65
2023-01-23T16:39:42.561Z,-66
2023-01-23T16:42:22.521Z,-65
2023-01-23T16:44:49.948Z,-66
2023-01-23T16:47:16.523Z,-67
2023-01-23T16:49:52.173Z,-66
2023-01-23T16:52:20.599Z,-66
2023-01-23T16:54:47.364Z,-66
2023-01-23T16:57:19.445Z,-65
2023-01-23T16:59:47.053Z,-65
2023-01-23T17:02:28.750Z,-65
2023-01-23T17:04:55.352Z,-67
2023-01-23T17:07:21.851Z,-66
2023-01-23T17:09:49.369Z,-67
2023-01-23T17:12:29.234Z,-66
2023-01-23T17:14:56.761Z,-67
2023-01-23T17:17:31.824Z,-66
2023-01-23T17:19:59.018Z,-66
2023-01-23T17:22:30.534Z,-66
2023-01-23T17:24:57.187Z,-66
2023-01-23T17:27:23.744Z,-66
2023-01-23T17:29:50.425Z,-65
2023-01-23T17:32:37.364Z,-65
2023-01-23T17:35:07.501Z,-66
2023-01-23T17:37:35.356Z,-66
2023-01-23T17:40:02.070Z,-66
2023-01-23T17:42:28.557Z,-66
2023-01-23T17:44:55.055Z,-66
2023-01-23T17:47:21.700Z,-67
2023-01-23T17:49:57.226Z,-67
2023-01-23T17:52:25.153Z,-68
2023-01-23T17:54:51.683Z,-65
2023-01-23T17:57:18.319Z,-65
2023-01-23T17:59:45.263Z,-65
2023-01-23T18:02:24.578Z,-65
2023-01-23T18:04:51.219Z,-66
2023-01-23T18:07:17.766Z,-66
2023-01-23T18:09:44.272Z,-65
2023-01-23T18:12:17.303Z,-67
2023-01-23T18:14:59.526Z,-67
2023-01-23T18:17:36.705Z,-64
2023-01-23T18:20:04.991Z,-66
2023-01-23T18:22:31.828Z,-65
2023-01-23T18:24:58.675Z,-66
2023-01-23T18:27:26.291Z,-64
2023-01-23T18:30:18.865Z,-66
2023-01-23T18:33:00.192Z,-64
2023-01-23T18:35:54.644Z,-66
2023-01-23T18:38:34.228Z,-66
2023-01-23T18:41:19.635Z,-66
2023-01-23T18:43:51.816Z,-65
2023-01-23T18:46:20.969Z,-64
2023-01-23T18:48:49.639Z,-67
2023-01-23T18:51:36.544Z,-66
2023-01-23T18:54:09.228Z,-66
2023-01-23T18:56:53.906Z,-66
2023-01-23T18:59:30.495Z,-65
2023-01-23T19:02:12.068Z,-64
2023-01-23T19:04:47.985Z,-65
2023-01-23T19:07:21.134Z,-67
2023-01-23T19:09:48.392Z,-65
2023-01-23T19:12:25.792Z,-64
2023-01-23T19:15:20.398Z,-65
2023-01-23T19:17:55.795Z,-66
2023-01-23T19:20:29.848Z,-65
2023-01-23T19:23:17.388Z,-67
2023-01-23T19:25:47.918Z,-66
2023-01-23T19:28:15.671Z,-65
2023-01-23T19:30:43.160Z,-67
2023-01-23T19:33:18.286Z,-66
2023-01-23T19:35:46.209Z,-67
2023-01-23T19:38:13.124Z,-66
2023-01-23T19:40:40.074Z,-66
2023-01-23T19:43:14.489Z,-67
2023-01-23T19:45:41.532Z,-67
2023-01-23T19:48:09.010Z,-66
2023-01-23T19:50:35.513Z,-66
2023-01-23T19:53:02.376Z,-67
2023-01-23T19:55:38.371Z,-67
2023-01-23T19:58:05.374Z,-64
2023-01-23T20:00:36.011Z,-66
2023-01-23T20:03:04.926Z,-67
2023-01-23T20:05:32.108Z,-66
2023-01-23T20:07:58.787Z,-67
2023-01-23T20:10:25.251Z,-64
2023-01-23T20:12:52.272Z,-67
2023-01-23T20:15:21.747Z,-67
2023-01-23T20:17:48.503Z,-67
2023-01-23T20:20:15.951Z,-67
2023-01-23T20:22:43.747Z,-66
2023-01-23T20:25:12.822Z,-81
2023-01-23T20:27:40.686Z,-83
2023-01-23T20:30:11.114Z,-84
2023-01-23T20:32:38.092Z,-83
2023-01-23T20:35:05.013Z,-81
2023-01-23T20:37:31.853Z,-84
2023-01-23T20:39:58.837Z,-83
2023-01-23T20:42:25.564Z,-84
2023-01-23T20:44:54.622Z,-84
2023-01-23T20:47:21.197Z,-85
2023-01-23T20:49:47.771Z,-84
2023-01-23T20:52:33.042Z,-85
2023-01-23T20:55:02.060Z,-85
2023-01-23T20:57:48.612Z,-85
2023-01-23T21:00:15.689Z,-84
2023-01-23T21:02:42.419Z,-81
2023-01-23T21:05:09.228Z,-86
2023-01-23T21:07:35.941Z,-81
2023-01-23T21:10:02.789Z,-84
2023-01-23T21:12:29.452Z,-85
2023-01-23T21:14:56.090Z,-81
2023-01-23T21:17:22.730Z,-85
2023-01-23T21:19:49.553Z,-83
2023-01-23T21:22:16.321Z,-85
2023-01-23T21:24:42.955Z,-83
2023-01-23T21:27:10.273Z,-83
2023-01-23T21:29:37.898Z,-83
2023-01-23T21:32:04.642Z,-85
2023-01-23T21:34:31.573Z,-83
2023-01-23T21:37:00.627Z,-82
2023-01-23T21:39:27.183Z,-81
2023-01-23T21:41:53.759Z,-82
2023-01-23T21:44:20.300Z,-83
2023-01-23T21:46:47.116Z,-81
2023-01-23T21:49:13.867Z,-83
2023-01-23T21:51:40.607Z,-81
2023-01-23T21:54:07.246Z,-84
2023-01-23T21:56:33.973Z,-82
2023-01-23T21:59:00.665Z,-81
2023-01-23T22:01:33.895Z,-84
2023-01-23T22:04:12.281Z,-82
2023-01-23T22:06:41.285Z,-83
2023-01-23T22:09:08.659Z,-83
2023-01-23T22:11:36.201Z,-84
2023-01-23T22:14:03.474Z,-84
2023-01-23T22:16:46.995Z,-83
2023-01-23T22:19:17.020Z,-84
2023-01-23T22:21:46.359Z,-84
2023-01-23T22:24:15.755Z,-84
2023-01-23T22:26:42.903Z,-84
2023-01-23T22:29:10.710Z,-84
2023-01-23T22:31:37.512Z,-83
2023-01-23T22:34:04.197Z,-83
2023-01-23T22:36:30.862Z,-83
2023-01-23T22:38:57.468Z,-83
2023-01-23T22:41:24.220Z,-83
2023-01-23T22:43:55.116Z,-83
2023-01-23T22:46:23.173Z,-84
2023-01-23T22:48:50.408Z,-84
2023-01-23T22:51:24.677Z,-84
2023-01-23T22:53:52.758Z,-84
2023-01-23T22:56:19.713Z,-84
2023-01-23T22:58:47.522Z,-83
2023-01-23T23:01:14.214Z,-83
2023-01-23T23:03:41.527Z,-85
2023-01-23T23:06:12.203Z,-84
2023-01-23T23:08:39.050Z,-84
2023-01-23T23:11:08.522Z,-83
2023-01-23T23:13:37.803Z,-84
2023-01-23T23:16:06.011Z,-86
2023-01-23T23:18:33.102Z,-83
2023-01-23T23:21:01.721Z,-84
2023-01-23T23:23:28.795Z,-83
2023-01-23T23:25:56.414Z,-84
2023-01-23T23:28:25.247Z,-83
2023-01-23T23:30:52.831Z,-82
2023-01-23T23:33:20.111Z,-85
2023-01-23T23:35:46.944Z,-83
2023-01-23T23:38:14.046Z,-84
2023-01-23T23:40:41.403Z,-83
2023-01-23T23:43:08.378Z,-85
2023-01-23T23:45:35.394Z,-84
2023-01-23T23:48:02.645Z,-83
2023-01-23T23:50:29.555Z,-86
2023-01-23T23:52:56.235Z,-83
2023-01-23T23:55:23.386Z,-83
2023-01-23T23:57:50.215Z,-84
